sensor_id;sensor_type;location;lat;lon;timestamp;P1;durP1;ratioP1;P2;durP2;ratioP2
6197;SDS011;3132;42.622;23.328;2024-03-08T00:00:26;22.50;;;19.90;;
6197;SDS011;3132;42.622;23.328;2024-03-08T00:02:52;23.03;;;19.77;;
6197;SDS011;3132;42.622;23.328;2024-03-08T00:05:17;25.23;;;19.43;;
6197;SDS011;3132;42.622;23.328;2024-03-08T00:07:43;26.40;;;19.57;;
6197;SDS011;3132;42.622;23.328;2024-03-08T00:10:09;20.90;;;18.63;;
6197;SDS011;3132;42.622;23.328;2024-03-08T00:12:40;26.37;;;19.93;;
6197;SDS011;3132;42.622;23.328;2024-03-08T00:15:14;23.93;;;18.67;;
6197;SDS011;3132;42.622;23.328;2024-03-08T00:17:40;21.67;;;19.30;;
6197;SDS011;3132;42.622;23.328;2024-03-08T00:20:06;27.53;;;20.23;;
6197;SDS011;3132;42.622;23.328;2024-03-08T00:22:35;22.93;;;18.47;;
6197;SDS011;3132;42.622;23.328;2024-03-08T00:25:04;23.13;;;19.53;;
6197;SDS011;3132;42.622;23.328;2024-03-08T00:27:30;22.67;;;18.93;;
6197;SDS011;3132;42.622;23.328;2024-03-08T00:29:56;24.13;;;19.13;;
6197;SDS011;3132;42.622;23.328;2024-03-08T00:32:22;22.97;;;18.33;;
6197;SDS011;3132;42.622;23.328;2024-03-08T00:34:49;20.23;;;18.07;;
6197;SDS011;3132;42.622;23.328;2024-03-08T00:37:17;25.53;;;19.47;;
6197;SDS011;3132;42.622;23.328;2024-03-08T00:39:42;22.47;;;18.43;;
6197;SDS011;3132;42.622;23.328;2024-03-08T00:42:08;23.33;;;17.80;;
6197;SDS011;3132;42.622;23.328;2024-03-08T00:44:33;22.50;;;18.00;;
6197;SDS011;3132;42.622;23.328;2024-03-08T00:46:58;21.03;;;16.73;;
6197;SDS011;3132;42.622;23.328;2024-03-08T00:49:24;22.47;;;18.83;;
6197;SDS011;3132;42.622;23.328;2024-03-08T00:51:50;19.83;;;17.80;;
6197;SDS011;3132;42.622;23.328;2024-03-08T00:54:15;20.23;;;17.23;;
6197;SDS011;3132;42.622;23.328;2024-03-08T00:56:41;18.70;;;16.83;;
6197;SDS011;3132;42.622;23.328;2024-03-08T00:59:07;17.80;;;15.93;;
6197;SDS011;3132;42.622;23.328;2024-03-08T01:01:32;26.30;;;15.83;;
6197;SDS011;3132;42.622;23.328;2024-03-08T01:03:58;21.70;;;15.50;;
6197;SDS011;3132;42.622;23.328;2024-03-08T01:06:23;18.17;;;16.33;;
6197;SDS011;3132;42.622;23.328;2024-03-08T01:08:49;25.43;;;15.33;;
6197;SDS011;3132;42.622;23.328;2024-03-08T01:11:17;22.60;;;14.47;;
6197;SDS011;3132;42.622;23.328;2024-03-08T01:13:44;37.07;;;14.20;;
6197;SDS011;3132;42.622;23.328;2024-03-08T01:16:12;16.10;;;14.63;;
6197;SDS011;3132;42.622;23.328;2024-03-08T01:18:37;23.73;;;12.93;;
6197;SDS011;3132;42.622;23.328;2024-03-08T01:21:03;15.17;;;13.63;;
6197;SDS011;3132;42.622;23.328;2024-03-08T01:23:29;14.97;;;13.57;;
6197;SDS011;3132;42.622;23.328;2024-03-08T01:25:54;13.53;;;12.33;;
6197;SDS011;3132;42.622;23.328;2024-03-08T01:28:25;14.60;;;13.50;;
6197;SDS011;3132;42.622;23.328;2024-03-08T01:30:51;55.37;;;13.27;;
6197;SDS011;3132;42.622;23.328;2024-03-08T01:33:21;71.13;;;13.67;;
6197;SDS011;3132;42.622;23.328;2024-03-08T01:35:51;134.33;;;14.60;;
6197;SDS011;3132;42.622;23.328;2024-03-08T01:38:19;13.33;;;11.60;;
6197;SDS011;3132;42.622;23.328;2024-03-08T01:40:48;121.23;;;14.27;;
6197;SDS011;3132;42.622;23.328;2024-03-08T01:45:43;12.57;;;11.57;;
6197;SDS011;3132;42.622;23.328;2024-03-08T01:48:08;30.03;;;12.63;;
6197;SDS011;3132;42.622;23.328;2024-03-08T01:50:34;18.50;;;11.77;;
6197;SDS011;3132;42.622;23.328;2024-03-08T01:53:01;11.90;;;10.80;;
6197;SDS011;3132;42.622;23.328;2024-03-08T01:55:27;13.23;;;11.97;;
6197;SDS011;3132;42.622;23.328;2024-03-08T01:57:52;12.63;;;11.53;;
6197;SDS011;3132;42.622;23.328;2024-03-08T02:00:18;12.93;;;12.00;;
6197;SDS011;3132;42.622;23.328;2024-03-08T02:02:46;12.57;;;11.67;;
6197;SDS011;3132;42.622;23.328;2024-03-08T02:05:12;13.43;;;12.43;;
6197;SDS011;3132;42.622;23.328;2024-03-08T02:07:40;13.93;;;12.57;;
6197;SDS011;3132;42.622;23.328;2024-03-08T02:10:09;12.37;;;11.30;;
6197;SDS011;3132;42.622;23.328;2024-03-08T02:12:35;14.30;;;13.17;;
6197;SDS011;3132;42.622;23.328;2024-03-08T02:15:00;12.47;;;11.57;;
6197;SDS011;3132;42.622;23.328;2024-03-08T02:17:26;12.13;;;11.07;;
6197;SDS011;3132;42.622;23.328;2024-03-08T02:19:51;12.67;;;11.73;;
6197;SDS011;3132;42.622;23.328;2024-03-08T02:22:16;13.83;;;12.70;;
6197;SDS011;3132;42.622;23.328;2024-03-08T02:24:42;13.40;;;12.23;;
6197;SDS011;3132;42.622;23.328;2024-03-08T02:27:08;13.57;;;12.67;;
6197;SDS011;3132;42.622;23.328;2024-03-08T02:29:36;12.67;;;11.77;;
6197;SDS011;3132;42.622;23.328;2024-03-08T02:32:02;12.93;;;12.03;;
6197;SDS011;3132;42.622;23.328;2024-03-08T02:34:28;12.97;;;12.07;;
6197;SDS011;3132;42.622;23.328;2024-03-08T02:36:54;12.57;;;11.70;;
6197;SDS011;3132;42.622;23.328;2024-03-08T02:39:21;11.50;;;10.70;;
6197;SDS011;3132;42.622;23.328;2024-03-08T02:41:47;12.77;;;11.77;;
6197;SDS011;3132;42.622;23.328;2024-03-08T02:44:12;12.90;;;12.00;;
6197;SDS011;3132;42.622;23.328;2024-03-08T02:46:38;13.37;;;12.17;;
6197;SDS011;3132;42.622;23.328;2024-03-08T02:49:03;13.77;;;12.73;;
6197;SDS011;3132;42.622;23.328;2024-03-08T02:51:29;12.20;;;11.27;;
6197;SDS011;3132;42.622;23.328;2024-03-08T02:53:55;13.57;;;12.60;;
6197;SDS011;3132;42.622;23.328;2024-03-08T02:56:21;12.23;;;11.40;;
6197;SDS011;3132;42.622;23.328;2024-03-08T02:58:47;12.13;;;11.30;;
6197;SDS011;3132;42.622;23.328;2024-03-08T03:01:13;11.73;;;10.83;;
6197;SDS011;3132;42.622;23.328;2024-03-08T03:03:40;11.47;;;10.87;;
6197;SDS011;3132;42.622;23.328;2024-03-08T03:06:06;10.73;;;10.23;;
6197;SDS011;3132;42.622;23.328;2024-03-08T03:08:32;11.67;;;10.97;;
6197;SDS011;3132;42.622;23.328;2024-03-08T03:10:57;10.60;;;10.10;;
6197;SDS011;3132;42.622;23.328;2024-03-08T03:13:23;10.67;;;10.13;;
6197;SDS011;3132;42.622;23.328;2024-03-08T03:15:48;10.43;;;9.97;;
6197;SDS011;3132;42.622;23.328;2024-03-08T03:18:14;10.03;;;9.53;;
6197;SDS011;3132;42.622;23.328;2024-03-08T03:20:40;10.37;;;9.87;;
6197;SDS011;3132;42.622;23.328;2024-03-08T03:23:07;10.87;;;10.27;;
6197;SDS011;3132;42.622;23.328;2024-03-08T03:25:34;9.80;;;9.20;;
6197;SDS011;3132;42.622;23.328;2024-03-08T03:28:05;11.83;;;11.13;;
6197;SDS011;3132;42.622;23.328;2024-03-08T03:30:33;10.37;;;9.87;;
6197;SDS011;3132;42.622;23.328;2024-03-08T03:33:01;10.40;;;9.73;;
6197;SDS011;3132;42.622;23.328;2024-03-08T03:35:31;11.40;;;10.70;;
6197;SDS011;3132;42.622;23.328;2024-03-08T03:37:56;9.77;;;9.27;;
6197;SDS011;3132;42.622;23.328;2024-03-08T03:40:34;9.40;;;9.00;;
6197;SDS011;3132;42.622;23.328;2024-03-08T03:43:00;9.60;;;9.20;;
6197;SDS011;3132;42.622;23.328;2024-03-08T03:45:26;9.57;;;9.13;;
6197;SDS011;3132;42.622;23.328;2024-03-08T03:47:52;10.20;;;9.63;;
6197;SDS011;3132;42.622;23.328;2024-03-08T03:50:20;11.07;;;10.57;;
6197;SDS011;3132;42.622;23.328;2024-03-08T03:52:47;10.70;;;10.10;;
6197;SDS011;3132;42.622;23.328;2024-03-08T03:55:13;10.17;;;9.57;;
6197;SDS011;3132;42.622;23.328;2024-03-08T03:57:39;10.93;;;10.23;;
6197;SDS011;3132;42.622;23.328;2024-03-08T04:00:05;10.67;;;9.97;;
6197;SDS011;3132;42.622;23.328;2024-03-08T04:02:34;11.37;;;10.80;;
6197;SDS011;3132;42.622;23.328;2024-03-08T04:05:00;10.40;;;9.90;;
6197;SDS011;3132;42.622;23.328;2024-03-08T04:07:27;11.00;;;10.50;;
6197;SDS011;3132;42.622;23.328;2024-03-08T04:09:52;9.50;;;8.90;;
6197;SDS011;3132;42.622;23.328;2024-03-08T04:12:18;8.53;;;8.13;;
6197;SDS011;3132;42.622;23.328;2024-03-08T04:14:43;9.63;;;9.23;;
6197;SDS011;3132;42.622;23.328;2024-03-08T04:17:09;9.77;;;9.37;;
6197;SDS011;3132;42.622;23.328;2024-03-08T04:19:36;9.60;;;9.20;;
6197;SDS011;3132;42.622;23.328;2024-03-08T04:22:01;10.83;;;10.33;;
6197;SDS011;3132;42.622;23.328;2024-03-08T04:24:27;10.10;;;9.60;;
6197;SDS011;3132;42.622;23.328;2024-03-08T04:26:52;10.87;;;10.27;;
6197;SDS011;3132;42.622;23.328;2024-03-08T04:29:18;10.87;;;10.23;;
6197;SDS011;3132;42.622;23.328;2024-03-08T04:31:44;10.73;;;10.13;;
6197;SDS011;3132;42.622;23.328;2024-03-08T04:34:10;9.47;;;9.07;;
6197;SDS011;3132;42.622;23.328;2024-03-08T04:36:35;8.80;;;8.40;;
6197;SDS011;3132;42.622;23.328;2024-03-08T04:39:01;9.80;;;9.40;;
6197;SDS011;3132;42.622;23.328;2024-03-08T04:41:27;10.17;;;9.57;;
6197;SDS011;3132;42.622;23.328;2024-03-08T04:43:52;10.47;;;9.80;;
6197;SDS011;3132;42.622;23.328;2024-03-08T04:46:18;10.47;;;9.97;;
6197;SDS011;3132;42.622;23.328;2024-03-08T04:48:44;9.43;;;9.03;;
6197;SDS011;3132;42.622;23.328;2024-03-08T04:51:09;10.50;;;10.00;;
6197;SDS011;3132;42.622;23.328;2024-03-08T04:53:35;9.90;;;9.40;;
6197;SDS011;3132;42.622;23.328;2024-03-08T04:56:00;9.67;;;9.27;;
6197;SDS011;3132;42.622;23.328;2024-03-08T04:58:30;8.60;;;8.30;;
6197;SDS011;3132;42.622;23.328;2024-03-08T05:00:56;8.90;;;8.60;;
6197;SDS011;3132;42.622;23.328;2024-03-08T05:03:22;8.80;;;8.43;;
6197;SDS011;3132;42.622;23.328;2024-03-08T05:05:47;9.77;;;9.17;;
6197;SDS011;3132;42.622;23.328;2024-03-08T05:08:12;9.20;;;8.80;;
6197;SDS011;3132;42.622;23.328;2024-03-08T05:10:38;9.10;;;8.77;;
6197;SDS011;3132;42.622;23.328;2024-03-08T05:13:03;8.57;;;8.17;;
6197;SDS011;3132;42.622;23.328;2024-03-08T05:15:28;9.53;;;9.13;;
6197;SDS011;3132;42.622;23.328;2024-03-08T05:17:54;9.57;;;9.17;;
6197;SDS011;3132;42.622;23.328;2024-03-08T05:20:20;9.10;;;8.60;;
6197;SDS011;3132;42.622;23.328;2024-03-08T05:22:47;9.17;;;8.77;;
6197;SDS011;3132;42.622;23.328;2024-03-08T05:25:12;9.70;;;9.20;;
6197;SDS011;3132;42.622;23.328;2024-03-08T05:27:39;9.37;;;8.93;;
6197;SDS011;3132;42.622;23.328;2024-03-08T05:30:05;9.80;;;9.40;;
6197;SDS011;3132;42.622;23.328;2024-03-08T05:32:31;9.40;;;9.00;;
6197;SDS011;3132;42.622;23.328;2024-03-08T05:34:56;9.07;;;8.67;;
6197;SDS011;3132;42.622;23.328;2024-03-08T05:37:22;10.17;;;9.50;;
6197;SDS011;3132;42.622;23.328;2024-03-08T05:39:47;10.30;;;9.70;;
6197;SDS011;3132;42.622;23.328;2024-03-08T05:42:12;8.63;;;8.23;;
6197;SDS011;3132;42.622;23.328;2024-03-08T05:44:37;9.77;;;9.17;;
6197;SDS011;3132;42.622;23.328;2024-03-08T05:47:05;11.17;;;10.40;;
6197;SDS011;3132;42.622;23.328;2024-03-08T05:49:32;14.07;;;12.67;;
6197;SDS011;3132;42.622;23.328;2024-03-08T05:51:57;12.40;;;11.40;;
6197;SDS011;3132;42.622;23.328;2024-03-08T05:54:22;13.23;;;12.07;;
6197;SDS011;3132;42.622;23.328;2024-03-08T05:56:49;15.00;;;13.70;;
6197;SDS011;3132;42.622;23.328;2024-03-08T05:59:17;14.13;;;12.63;;
6197;SDS011;3132;42.622;23.328;2024-03-08T06:01:43;13.33;;;12.13;;
6197;SDS011;3132;42.622;23.328;2024-03-08T06:04:08;11.90;;;11.10;;
6197;SDS011;3132;42.622;23.328;2024-03-08T06:06:36;11.27;;;10.50;;
6197;SDS011;3132;42.622;23.328;2024-03-08T06:09:02;10.33;;;9.83;;
6197;SDS011;3132;42.622;23.328;2024-03-08T06:11:34;10.90;;;10.30;;
6197;SDS011;3132;42.622;23.328;2024-03-08T06:13:59;12.17;;;11.47;;
6197;SDS011;3132;42.622;23.328;2024-03-08T06:16:25;11.90;;;11.10;;
6197;SDS011;3132;42.622;23.328;2024-03-08T06:18:54;11.03;;;10.33;;
6197;SDS011;3132;42.622;23.328;2024-03-08T06:21:20;11.47;;;10.63;;
6197;SDS011;3132;42.622;23.328;2024-03-08T06:23:47;10.37;;;9.87;;
6197;SDS011;3132;42.622;23.328;2024-03-08T06:26:13;11.73;;;10.97;;
6197;SDS011;3132;42.622;23.328;2024-03-08T06:28:38;11.83;;;10.93;;
6197;SDS011;3132;42.622;23.328;2024-03-08T06:31:03;14.53;;;13.30;;
6197;SDS011;3132;42.622;23.328;2024-03-08T06:33:29;14.50;;;13.20;;
6197;SDS011;3132;42.622;23.328;2024-03-08T06:35:57;14.20;;;12.97;;
6197;SDS011;3132;42.622;23.328;2024-03-08T06:38:26;13.67;;;12.67;;
6197;SDS011;3132;42.622;23.328;2024-03-08T06:40:52;14.67;;;13.47;;
6197;SDS011;3132;42.622;23.328;2024-03-08T06:43:18;13.77;;;12.57;;
6197;SDS011;3132;42.622;23.328;2024-03-08T06:45:44;13.00;;;12.07;;
6197;SDS011;3132;42.622;23.328;2024-03-08T06:48:19;12.73;;;11.73;;
6197;SDS011;3132;42.622;23.328;2024-03-08T06:50:44;13.50;;;12.40;;
6197;SDS011;3132;42.622;23.328;2024-03-08T06:53:11;14.70;;;13.40;;
6197;SDS011;3132;42.622;23.328;2024-03-08T06:55:37;13.80;;;12.57;;
6197;SDS011;3132;42.622;23.328;2024-03-08T06:58:02;15.57;;;13.57;;
6197;SDS011;3132;42.622;23.328;2024-03-08T07:00:28;15.40;;;13.57;;
6197;SDS011;3132;42.622;23.328;2024-03-08T07:02:55;14.80;;;13.40;;
6197;SDS011;3132;42.622;23.328;2024-03-08T07:05:22;13.83;;;12.53;;
6197;SDS011;3132;42.622;23.328;2024-03-08T07:07:49;14.77;;;13.57;;
6197;SDS011;3132;42.622;23.328;2024-03-08T07:10:16;13.70;;;12.53;;
6197;SDS011;3132;42.622;23.328;2024-03-08T07:12:41;14.47;;;13.07;;
6197;SDS011;3132;42.622;23.328;2024-03-08T07:15:07;14.87;;;13.70;;
6197;SDS011;3132;42.622;23.328;2024-03-08T07:17:33;14.37;;;13.27;;
6197;SDS011;3132;42.622;23.328;2024-03-08T07:20:00;15.47;;;14.07;;
6197;SDS011;3132;42.622;23.328;2024-03-08T07:22:31;14.07;;;12.70;;
6197;SDS011;3132;42.622;23.328;2024-03-08T07:24:56;15.77;;;14.37;;
6197;SDS011;3132;42.622;23.328;2024-03-08T07:27:41;13.87;;;12.83;;
6197;SDS011;3132;42.622;23.328;2024-03-08T07:30:07;15.10;;;13.80;;
6197;SDS011;3132;42.622;23.328;2024-03-08T07:32:35;15.10;;;14.00;;
6197;SDS011;3132;42.622;23.328;2024-03-08T07:35:00;13.93;;;12.80;;
6197;SDS011;3132;42.622;23.328;2024-03-08T07:37:29;12.00;;;11.20;;
6197;SDS011;3132;42.622;23.328;2024-03-08T07:39:56;15.07;;;13.77;;
6197;SDS011;3132;42.622;23.328;2024-03-08T07:42:23;13.63;;;12.67;;
6197;SDS011;3132;42.622;23.328;2024-03-08T07:44:48;13.67;;;12.57;;
6197;SDS011;3132;42.622;23.328;2024-03-08T07:47:15;13.73;;;12.70;;
6197;SDS011;3132;42.622;23.328;2024-03-08T07:49:42;14.23;;;13.03;;
6197;SDS011;3132;42.622;23.328;2024-03-08T07:52:08;13.50;;;12.30;;
6197;SDS011;3132;42.622;23.328;2024-03-08T07:54:34;14.00;;;12.80;;
6197;SDS011;3132;42.622;23.328;2024-03-08T07:57:02;14.93;;;13.57;;
6197;SDS011;3132;42.622;23.328;2024-03-08T07:59:28;15.00;;;13.60;;
6197;SDS011;3132;42.622;23.328;2024-03-08T08:01:54;15.87;;;14.67;;
6197;SDS011;3132;42.622;23.328;2024-03-08T08:04:19;15.00;;;13.60;;
6197;SDS011;3132;42.622;23.328;2024-03-08T08:06:49;15.03;;;13.73;;
6197;SDS011;3132;42.622;23.328;2024-03-08T08:09:16;14.07;;;13.03;;
6197;SDS011;3132;42.622;23.328;2024-03-08T08:11:47;14.63;;;13.43;;
6197;SDS011;3132;42.622;23.328;2024-03-08T08:14:12;13.77;;;12.67;;
6197;SDS011;3132;42.622;23.328;2024-03-08T08:16:38;13.67;;;12.57;;
6197;SDS011;3132;42.622;23.328;2024-03-08T08:19:06;13.13;;;11.97;;
6197;SDS011;3132;42.622;23.328;2024-03-08T08:21:35;13.57;;;12.57;;
6197;SDS011;3132;42.622;23.328;2024-03-08T08:24:03;12.77;;;12.00;;
6197;SDS011;3132;42.622;23.328;2024-03-08T08:26:29;13.83;;;12.40;;
6197;SDS011;3132;42.622;23.328;2024-03-08T08:28:54;12.87;;;11.97;;
6197;SDS011;3132;42.622;23.328;2024-03-08T08:31:20;13.47;;;12.43;;
6197;SDS011;3132;42.622;23.328;2024-03-08T08:33:45;13.07;;;12.00;;
6197;SDS011;3132;42.622;23.328;2024-03-08T08:36:13;13.37;;;12.17;;
6197;SDS011;3132;42.622;23.328;2024-03-08T08:38:38;13.20;;;12.10;;
6197;SDS011;3132;42.622;23.328;2024-03-08T08:41:04;15.27;;;13.80;;
6197;SDS011;3132;42.622;23.328;2024-03-08T08:43:30;14.63;;;13.47;;
6197;SDS011;3132;42.622;23.328;2024-03-08T08:45:55;14.70;;;13.50;;
6197;SDS011;3132;42.622;23.328;2024-03-08T08:48:21;14.60;;;13.17;;
6197;SDS011;3132;42.622;23.328;2024-03-08T08:50:46;16.57;;;14.87;;
6197;SDS011;3132;42.622;23.328;2024-03-08T08:53:12;14.53;;;13.43;;
6197;SDS011;3132;42.622;23.328;2024-03-08T08:55:40;14.43;;;13.03;;
6197;SDS011;3132;42.622;23.328;2024-03-08T08:58:05;13.30;;;12.30;;
6197;SDS011;3132;42.622;23.328;2024-03-08T09:00:32;13.57;;;12.50;;
6197;SDS011;3132;42.622;23.328;2024-03-08T09:02:59;16.03;;;14.23;;
6197;SDS011;3132;42.622;23.328;2024-03-08T09:05:25;14.50;;;13.23;;
6197;SDS011;3132;42.622;23.328;2024-03-08T09:07:51;14.77;;;13.47;;
6197;SDS011;3132;42.622;23.328;2024-03-08T09:10:18;13.93;;;12.83;;
6197;SDS011;3132;42.622;23.328;2024-03-08T09:12:43;13.73;;;12.37;;
6197;SDS011;3132;42.622;23.328;2024-03-08T09:15:09;12.90;;;12.00;;
6197;SDS011;3132;42.622;23.328;2024-03-08T09:17:36;14.17;;;12.80;;
6197;SDS011;3132;42.622;23.328;2024-03-08T09:20:05;14.07;;;12.90;;
6197;SDS011;3132;42.622;23.328;2024-03-08T09:22:31;13.50;;;12.50;;
6197;SDS011;3132;42.622;23.328;2024-03-08T09:24:57;13.87;;;12.77;;
6197;SDS011;3132;42.622;23.328;2024-03-08T09:27:22;13.23;;;12.37;;
6197;SDS011;3132;42.622;23.328;2024-03-08T09:29:48;14.70;;;13.67;;
6197;SDS011;3132;42.622;23.328;2024-03-08T09:32:13;14.37;;;13.27;;
6197;SDS011;3132;42.622;23.328;2024-03-08T09:34:39;15.17;;;13.00;;
6197;SDS011;3132;42.622;23.328;2024-03-08T09:37:05;12.93;;;11.80;;
6197;SDS011;3132;42.622;23.328;2024-03-08T09:39:30;13.37;;;12.33;;
6197;SDS011;3132;42.622;23.328;2024-03-08T09:41:56;12.93;;;11.77;;
6197;SDS011;3132;42.622;23.328;2024-03-08T09:44:22;12.80;;;11.90;;
6197;SDS011;3132;42.622;23.328;2024-03-08T09:46:48;12.53;;;11.73;;
6197;SDS011;3132;42.622;23.328;2024-03-08T09:49:16;14.67;;;13.17;;
6197;SDS011;3132;42.622;23.328;2024-03-08T09:51:42;13.60;;;12.50;;
6197;SDS011;3132;42.622;23.328;2024-03-08T09:54:07;14.30;;;13.17;;
6197;SDS011;3132;42.622;23.328;2024-03-08T09:56:33;14.40;;;13.10;;
6197;SDS011;3132;42.622;23.328;2024-03-08T09:59:00;12.70;;;11.80;;
6197;SDS011;3132;42.622;23.328;2024-03-08T10:01:48;13.97;;;12.77;;
6197;SDS011;3132;42.622;23.328;2024-03-08T10:04:14;14.87;;;13.47;;
6197;SDS011;3132;42.622;23.328;2024-03-08T10:06:39;15.20;;;14.07;;
6197;SDS011;3132;42.622;23.328;2024-03-08T10:09:05;20.73;;;12.97;;
6197;SDS011;3132;42.622;23.328;2024-03-08T10:11:33;13.67;;;12.57;;
6197;SDS011;3132;42.622;23.328;2024-03-08T10:13:59;14.10;;;12.73;;
6197;SDS011;3132;42.622;23.328;2024-03-08T10:16:27;14.07;;;12.83;;
6197;SDS011;3132;42.622;23.328;2024-03-08T10:18:53;14.07;;;12.33;;
6197;SDS011;3132;42.622;23.328;2024-03-08T10:21:21;14.03;;;12.93;;
6197;SDS011;3132;42.622;23.328;2024-03-08T10:23:46;17.87;;;11.50;;
6197;SDS011;3132;42.622;23.328;2024-03-08T10:26:13;12.90;;;11.97;;
6197;SDS011;3132;42.622;23.328;2024-03-08T10:28:47;12.53;;;11.73;;
6197;SDS011;3132;42.622;23.328;2024-03-08T10:31:14;10.73;;;10.10;;
6197;SDS011;3132;42.622;23.328;2024-03-08T10:33:42;11.10;;;10.00;;
6197;SDS011;3132;42.622;23.328;2024-03-08T10:36:09;12.47;;;11.60;;
6197;SDS011;3132;42.622;23.328;2024-03-08T10:38:39;11.43;;;10.83;;
6197;SDS011;3132;42.622;23.328;2024-03-08T10:41:07;10.53;;;9.83;;
6197;SDS011;3132;42.622;23.328;2024-03-08T10:43:44;11.40;;;10.63;;
6197;SDS011;3132;42.622;23.328;2024-03-08T10:48:52;12.03;;;11.17;;
6197;SDS011;3132;42.622;23.328;2024-03-08T10:51:20;11.73;;;10.93;;
6197;SDS011;3132;42.622;23.328;2024-03-08T10:53:46;11.27;;;10.43;;
6197;SDS011;3132;42.622;23.328;2024-03-08T10:56:13;11.70;;;11.10;;
6197;SDS011;3132;42.622;23.328;2024-03-08T10:58:39;11.63;;;10.93;;
6197;SDS011;3132;42.622;23.328;2024-03-08T11:01:06;11.87;;;10.93;;
6197;SDS011;3132;42.622;23.328;2024-03-08T11:06:19;12.20;;;11.20;;
6197;SDS011;3132;42.622;23.328;2024-03-08T11:14:51;11.17;;;10.57;;
6197;SDS011;3132;42.622;23.328;2024-03-08T11:18:00;11.63;;;10.93;;
6197;SDS011;3132;42.622;23.328;2024-03-08T11:20:11;10.57;;;9.87;;
6197;SDS011;3132;42.622;23.328;2024-03-08T11:22:41;11.07;;;10.37;;
6197;SDS011;3132;42.622;23.328;2024-03-08T11:25:30;11.43;;;10.77;;
6197;SDS011;3132;42.622;23.328;2024-03-08T11:28:08;12.70;;;11.37;;
6197;SDS011;3132;42.622;23.328;2024-03-08T11:30:36;10.87;;;10.07;;
6197;SDS011;3132;42.622;23.328;2024-03-08T11:33:03;10.40;;;9.87;;
6197;SDS011;3132;42.622;23.328;2024-03-08T11:35:28;10.77;;;10.00;;
6197;SDS011;3132;42.622;23.328;2024-03-08T11:37:54;10.20;;;9.77;;
6197;SDS011;3132;42.622;23.328;2024-03-08T11:40:23;10.57;;;9.97;;
6197;SDS011;3132;42.622;23.328;2024-03-08T11:42:49;10.87;;;10.30;;
6197;SDS011;3132;42.622;23.328;2024-03-08T11:45:16;9.97;;;9.20;;
6197;SDS011;3132;42.622;23.328;2024-03-08T11:47:45;10.87;;;10.27;;
6197;SDS011;3132;42.622;23.328;2024-03-08T11:50:13;9.60;;;8.90;;
6197;SDS011;3132;42.622;23.328;2024-03-08T11:52:39;10.57;;;9.97;;
6197;SDS011;3132;42.622;23.328;2024-03-08T11:55:05;11.30;;;10.27;;
6197;SDS011;3132;42.622;23.328;2024-03-08T11:57:31;9.93;;;9.33;;
6197;SDS011;3132;42.622;23.328;2024-03-08T11:59:57;10.40;;;9.80;;
6197;SDS011;3132;42.622;23.328;2024-03-08T12:02:23;10.97;;;10.40;;
6197;SDS011;3132;42.622;23.328;2024-03-08T12:04:59;9.93;;;9.43;;
6197;SDS011;3132;42.622;23.328;2024-03-08T12:07:25;10.40;;;9.90;;
6197;SDS011;3132;42.622;23.328;2024-03-08T12:12:45;11.00;;;10.10;;
6197;SDS011;3132;42.622;23.328;2024-03-08T12:15:12;11.10;;;10.03;;
6197;SDS011;3132;42.622;23.328;2024-03-08T12:17:39;11.60;;;10.80;;
6197;SDS011;3132;42.622;23.328;2024-03-08T12:20:12;10.80;;;10.20;;
6197;SDS011;3132;42.622;23.328;2024-03-08T12:22:43;10.77;;;10.23;;
6197;SDS011;3132;42.622;23.328;2024-03-08T12:25:12;10.37;;;9.57;;
6197;SDS011;3132;42.622;23.328;2024-03-08T12:27:39;10.67;;;9.80;;
6197;SDS011;3132;42.622;23.328;2024-03-08T12:30:18;9.67;;;9.17;;
6197;SDS011;3132;42.622;23.328;2024-03-08T12:32:52;10.47;;;9.97;;
6197;SDS011;3132;42.622;23.328;2024-03-08T12:35:22;10.43;;;9.93;;
6197;SDS011;3132;42.622;23.328;2024-03-08T12:37:53;10.50;;;9.97;;
6197;SDS011;3132;42.622;23.328;2024-03-08T12:40:29;10.23;;;9.70;;
6197;SDS011;3132;42.622;23.328;2024-03-08T12:42:59;9.97;;;9.47;;
6197;SDS011;3132;42.622;23.328;2024-03-08T12:45:26;10.47;;;9.77;;
6197;SDS011;3132;42.622;23.328;2024-03-08T12:47:52;10.50;;;9.77;;
6197;SDS011;3132;42.622;23.328;2024-03-08T12:50:19;10.23;;;9.73;;
6197;SDS011;3132;42.622;23.328;2024-03-08T12:52:45;10.30;;;9.67;;
6197;SDS011;3132;42.622;23.328;2024-03-08T12:55:11;10.70;;;10.13;;
6197;SDS011;3132;42.622;23.328;2024-03-08T12:57:37;9.67;;;9.17;;
6197;SDS011;3132;42.622;23.328;2024-03-08T13:00:03;10.60;;;10.00;;
6197;SDS011;3132;42.622;23.328;2024-03-08T13:02:29;9.37;;;8.97;;
6197;SDS011;3132;42.622;23.328;2024-03-08T13:04:57;10.17;;;9.70;;
6197;SDS011;3132;42.622;23.328;2024-03-08T13:07:23;11.50;;;10.80;;
6197;SDS011;3132;42.622;23.328;2024-03-08T13:09:51;10.37;;;9.87;;
6197;SDS011;3132;42.622;23.328;2024-03-08T13:12:18;9.37;;;8.97;;
6197;SDS011;3132;42.622;23.328;2024-03-08T13:14:45;10.57;;;9.60;;
6197;SDS011;3132;42.622;23.328;2024-03-08T13:17:11;12.57;;;11.63;;
6197;SDS011;3132;42.622;23.328;2024-03-08T13:19:37;9.97;;;9.47;;
6197;SDS011;3132;42.622;23.328;2024-03-08T13:22:03;10.63;;;10.03;;
6197;SDS011;3132;42.622;23.328;2024-03-08T13:24:32;10.50;;;9.80;;
6197;SDS011;3132;42.622;23.328;2024-03-08T13:26:58;10.57;;;9.87;;
6197;SDS011;3132;42.622;23.328;2024-03-08T13:29:25;10.17;;;9.57;;
6197;SDS011;3132;42.622;23.328;2024-03-08T13:31:50;9.33;;;8.87;;
6197;SDS011;3132;42.622;23.328;2024-03-08T13:34:18;9.67;;;9.03;;
6197;SDS011;3132;42.622;23.328;2024-03-08T13:36:43;10.70;;;10.07;;
6197;SDS011;3132;42.622;23.328;2024-03-08T13:39:11;10.07;;;9.07;;
6197;SDS011;3132;42.622;23.328;2024-03-08T13:41:45;9.60;;;8.97;;
6197;SDS011;3132;42.622;23.328;2024-03-08T13:44:11;10.60;;;9.73;;
6197;SDS011;3132;42.622;23.328;2024-03-08T13:46:37;9.17;;;8.57;;
6197;SDS011;3132;42.622;23.328;2024-03-08T13:49:03;9.87;;;9.33;;
6197;SDS011;3132;42.622;23.328;2024-03-08T13:51:35;10.27;;;9.67;;
6197;SDS011;3132;42.622;23.328;2024-03-08T13:54:00;10.90;;;10.20;;
6197;SDS011;3132;42.622;23.328;2024-03-08T13:56:26;10.77;;;10.27;;
6197;SDS011;3132;42.622;23.328;2024-03-08T13:58:55;11.03;;;9.87;;
6197;SDS011;3132;42.622;23.328;2024-03-08T14:01:22;9.87;;;9.37;;
6197;SDS011;3132;42.622;23.328;2024-03-08T14:03:47;9.63;;;9.23;;
6197;SDS011;3132;42.622;23.328;2024-03-08T14:06:12;9.97;;;9.37;;
6197;SDS011;3132;42.622;23.328;2024-03-08T14:08:38;10.33;;;9.73;;
6197;SDS011;3132;42.622;23.328;2024-03-08T14:11:04;10.50;;;9.90;;
6197;SDS011;3132;42.622;23.328;2024-03-08T14:13:41;10.10;;;9.47;;
6197;SDS011;3132;42.622;23.328;2024-03-08T14:16:10;10.90;;;10.10;;
6197;SDS011;3132;42.622;23.328;2024-03-08T14:18:36;10.50;;;10.00;;
6197;SDS011;3132;42.622;23.328;2024-03-08T14:21:02;12.03;;;11.27;;
6197;SDS011;3132;42.622;23.328;2024-03-08T14:23:29;10.83;;;9.93;;
6197;SDS011;3132;42.622;23.328;2024-03-08T14:25:54;10.47;;;9.83;;
6197;SDS011;3132;42.622;23.328;2024-03-08T14:28:20;18.23;;;16.30;;
6197;SDS011;3132;42.622;23.328;2024-03-08T14:30:47;10.70;;;10.13;;
6197;SDS011;3132;42.622;23.328;2024-03-08T14:33:13;11.10;;;10.20;;
6197;SDS011;3132;42.622;23.328;2024-03-08T14:35:39;11.33;;;10.73;;
6197;SDS011;3132;42.622;23.328;2024-03-08T14:38:05;9.70;;;9.10;;
6197;SDS011;3132;42.622;23.328;2024-03-08T14:40:33;9.40;;;8.90;;
6197;SDS011;3132;42.622;23.328;2024-03-08T14:42:59;9.40;;;9.00;;
6197;SDS011;3132;42.622;23.328;2024-03-08T14:45:24;9.87;;;9.37;;
6197;SDS011;3132;42.622;23.328;2024-03-08T14:47:51;9.33;;;8.93;;
6197;SDS011;3132;42.622;23.328;2024-03-08T14:50:17;9.53;;;9.10;;
6197;SDS011;3132;42.622;23.328;2024-03-08T14:52:44;9.80;;;9.33;;
6197;SDS011;3132;42.622;23.328;2024-03-08T14:55:09;10.97;;;10.37;;